createdAt,value
2019-04-10T00:01:38.553Z,30.63
2019-04-10T00:04:29.489Z,22.17
2019-04-10T00:07:21.165Z,23.93
2019-04-10T00:10:13.852Z,21.23
2019-04-10T00:13:05.310Z,23.40
2019-04-10T00:15:57.035Z,22.63
2019-04-10T00:18:48.517Z,25.63
2019-04-10T00:21:39.757Z,25.83
2019-04-10T00:24:30.751Z,22.20
2019-04-10T00:27:22.778Z,24.07
2019-04-10T00:30:13.373Z,21.87
2019-04-10T00:33:04.792Z,25.53
2019-04-10T00:35:56.063Z,23.53
2019-04-10T00:38:48.265Z,23.47
2019-04-10T00:41:38.630Z,22.30
2019-04-10T00:44:29.905Z,24.60
2019-04-10T00:47:21.237Z,22.83
2019-04-10T00:50:12.610Z,24.33
2019-04-10T00:53:04.984Z,28.67
2019-04-10T00:55:56.562Z,26.67
2019-04-10T00:58:47.806Z,22.90
2019-04-10T01:01:40.220Z,28.10
2019-04-10T01:04:31.541Z,23.90
2019-04-10T01:07:34.704Z,19.80
2019-04-10T01:10:15.617Z,23.70
2019-04-10T01:13:06.288Z,22.03
2019-04-10T01:15:57.394Z,25.93
2019-04-10T01:18:48.410Z,24.00
2019-04-10T01:21:39.605Z,23.20
2019-04-10T01:24:30.836Z,22.53
2019-04-10T01:27:21.625Z,24.53
2019-04-10T01:30:13.812Z,21.27
2019-04-10T01:33:04.442Z,23.97
2019-04-10T01:35:56.335Z,21.97
2019-04-10T01:38:47.764Z,23.50
2019-04-10T01:41:38.262Z,20.30
2019-04-10T01:44:28.958Z,22.97
2019-04-10T01:47:19.308Z,25.47
2019-04-10T01:50:10.643Z,19.87
2019-04-10T01:53:01.729Z,21.23
2019-04-10T01:55:53.519Z,20.73
2019-04-10T01:58:47.668Z,21.67
2019-04-10T02:01:42.991Z,21.10
2019-04-10T02:04:35.137Z,20.90
2019-04-10T02:07:26.388Z,23.43
2019-04-10T02:10:18.567Z,24.50
2019-04-10T02:13:09.896Z,20.27
2019-04-10T02:16:00.702Z,23.33
2019-04-10T02:18:52.155Z,20.10
2019-04-10T02:21:44.267Z,19.83
2019-04-10T02:24:35.531Z,22.30
2019-04-10T02:27:26.732Z,26.50
2019-04-10T02:30:19.604Z,22.73
2019-04-10T02:33:10.809Z,24.47
2019-04-10T02:36:03.506Z,23.17
2019-04-10T02:39:06.935Z,20.73
2019-04-10T02:41:46.082Z,25.67
2019-04-10T02:44:37.726Z,25.00
2019-04-10T02:47:30.698Z,23.30
2019-04-10T02:50:21.643Z,24.80
2019-04-10T02:53:13.073Z,23.80
2019-04-10T02:56:05.277Z,29.97
2019-04-10T02:58:58.474Z,24.07
2019-04-10T03:01:49.722Z,21.30
2019-04-10T03:04:40.639Z,22.87
2019-04-10T03:07:32.017Z,22.50
2019-04-10T03:10:29.597Z,23.90
2019-04-10T03:13:15.809Z,21.03
2019-04-10T03:16:07.528Z,26.23
2019-04-10T03:18:59.148Z,21.10
2019-04-10T03:21:49.331Z,23.47
2019-04-10T03:24:40.563Z,23.87
2019-04-10T03:27:31.213Z,22.00
2019-04-10T03:30:23.399Z,25.67
2019-04-10T03:33:26.791Z,23.10
2019-04-10T03:36:15.619Z,19.43
2019-04-10T03:39:10.688Z,19.83
2019-04-10T03:42:01.164Z,20.30
2019-04-10T03:44:52.344Z,28.47
2019-04-10T03:47:43.865Z,19.90
2019-04-10T03:50:34.597Z,22.53
2019-04-10T03:53:26.432Z,21.97
2019-04-10T03:56:18.026Z,20.87
2019-04-10T03:59:09.663Z,22.70
2019-04-10T04:02:00.819Z,19.63
2019-04-10T04:04:51.943Z,23.40
2019-04-10T04:07:43.116Z,20.83
2019-04-10T04:10:35.043Z,22.23
2019-04-10T04:13:26.248Z,25.10
2019-04-10T04:16:17.520Z,22.33
2019-04-10T04:19:08.491Z,20.80
2019-04-10T04:22:00.597Z,19.87
2019-04-10T04:24:51.172Z,21.80
2019-04-10T04:27:42.014Z,21.40
2019-04-10T04:30:34.091Z,19.47
2019-04-10T04:33:24.420Z,21.43
2019-04-10T04:36:14.762Z,20.87
2019-04-10T04:39:18.055Z,25.17
2019-04-10T04:42:00.827Z,21.30
2019-04-10T04:44:52.150Z,25.27
2019-04-10T04:47:43.255Z,25.23
2019-04-10T04:50:35.691Z,24.37
2019-04-10T04:53:27.938Z,21.70
2019-04-10T04:56:18.175Z,30.47
2019-04-10T04:59:10.170Z,24.33
2019-04-10T05:02:01.365Z,32.20
2019-04-10T05:04:51.529Z,24.37
2019-04-10T05:07:42.021Z,20.60
2019-04-10T05:10:32.337Z,24.40
2019-04-10T05:13:24.362Z,22.40
2019-04-10T05:16:16.599Z,20.90
2019-04-10T05:19:08.057Z,19.47
2019-04-10T05:21:59.570Z,25.33
2019-04-10T05:24:50.927Z,19.23
2019-04-10T05:27:42.098Z,28.20
2019-04-10T05:30:33.519Z,23.87
2019-04-10T05:33:24.697Z,23.03
2019-04-10T05:36:17.296Z,24.63
2019-04-10T05:39:09.152Z,25.53
2019-04-10T05:42:02.312Z,24.87
2019-04-10T05:44:54.462Z,24.20
2019-04-10T05:47:45.080Z,23.53
2019-04-10T05:50:36.192Z,28.23
2019-04-10T05:53:28.824Z,26.43
2019-04-10T05:56:20.702Z,25.90
2019-04-10T05:59:14.643Z,18.33
2019-04-10T06:02:06.770Z,23.97
2019-04-10T06:04:57.928Z,21.63
2019-04-10T06:07:49.361Z,24.33
2019-04-10T06:10:39.864Z,19.13
2019-04-10T06:13:30.762Z,27.07
2019-04-10T06:16:21.869Z,20.73
2019-04-10T06:19:13.331Z,23.27
2019-04-10T06:22:05.200Z,23.10
2019-04-10T06:24:56.539Z,23.10
2019-04-10T06:27:48.411Z,26.33
2019-04-10T06:30:39.684Z,28.43
2019-04-10T06:33:31.827Z,26.50
2019-04-10T06:36:22.316Z,27.10
2019-04-10T06:39:13.687Z,25.10
2019-04-10T06:42:04.828Z,25.20
2019-04-10T06:44:56.457Z,30.23
2019-04-10T06:47:48.609Z,26.27
2019-04-10T06:50:39.966Z,25.20
2019-04-10T06:53:31.123Z,28.40
2019-04-10T06:56:21.644Z,25.00
2019-04-10T06:59:14.091Z,24.07
2019-04-10T07:02:17.243Z,22.13
2019-04-10T07:05:04.714Z,22.37
2019-04-10T07:07:53.632Z,23.83
2019-04-10T07:10:52.057Z,24.80
2019-04-10T07:13:39.509Z,17.87
2019-04-10T07:16:31.071Z,17.90
2019-04-10T07:19:20.135Z,19.20
2019-04-10T07:22:14.164Z,16.30
2019-04-10T07:25:04.714Z,15.93
2019-04-10T07:27:56.167Z,18.77
2019-04-10T07:30:47.805Z,18.47
2019-04-10T07:33:40.478Z,20.37
2019-04-10T07:36:30.818Z,18.40
2019-04-10T07:39:21.585Z,18.17
2019-04-10T07:42:25.282Z,17.60
2019-04-10T07:45:05.057Z,20.07
2019-04-10T07:47:56.348Z,17.87
2019-04-10T07:50:47.540Z,17.67
2019-04-10T07:53:39.537Z,17.60
2019-04-10T07:56:31.171Z,19.83
2019-04-10T07:59:22.470Z,21.37
2019-04-10T08:02:14.287Z,17.63
2019-04-10T08:05:05.969Z,20.17
2019-04-10T08:07:57.564Z,17.90
2019-04-10T08:10:49.045Z,17.77
2019-04-10T08:13:39.316Z,17.53
2019-04-10T08:16:30.790Z,17.50
2019-04-10T08:19:24.881Z,18.83
2019-04-10T08:22:14.480Z,19.40
2019-04-10T08:25:06.413Z,17.27
2019-04-10T08:27:56.986Z,19.53
2019-04-10T08:30:48.364Z,32.93
2019-04-10T08:33:39.681Z,20.40
2019-04-10T08:36:31.851Z,16.80
2019-04-10T08:39:35.344Z,16.77
2019-04-10T08:42:14.820Z,18.27
2019-04-10T08:45:07.132Z,20.83
2019-04-10T08:47:59.427Z,20.20
2019-04-10T08:50:50.657Z,19.43
2019-04-10T08:53:42.397Z,18.07
2019-04-10T08:56:32.971Z,19.90
2019-04-10T08:59:24.172Z,17.23
2019-04-10T09:02:14.849Z,18.87
2019-04-10T09:05:06.974Z,17.80
2019-04-10T09:07:58.699Z,17.20
2019-04-10T09:10:50.381Z,16.90
2019-04-10T09:13:44.423Z,24.43
2019-04-10T09:16:36.366Z,16.90
2019-04-10T09:19:27.726Z,18.40
2019-04-10T09:22:18.984Z,20.27
2019-04-10T09:25:11.132Z,19.83
2019-04-10T09:28:02.439Z,18.93
2019-04-10T09:30:53.664Z,17.27
2019-04-10T09:33:45.246Z,19.33
2019-04-10T09:36:37.529Z,20.13
2019-04-10T09:39:29.610Z,17.37
2019-04-10T09:42:21.559Z,16.70
2019-04-10T09:45:13.507Z,17.67
2019-04-10T09:48:04.267Z,16.47
2019-04-10T09:50:56.131Z,24.77
2019-04-10T09:53:46.717Z,17.63
2019-04-10T09:56:38.575Z,17.47
2019-04-10T09:59:35.496Z,17.37
2019-04-10T10:02:23.206Z,18.57
2019-04-10T10:05:14.667Z,16.07
2019-04-10T10:08:06.458Z,21.93
2019-04-10T10:10:57.706Z,19.73
2019-04-10T10:13:49.954Z,20.40
2019-04-10T10:16:42.199Z,19.03
2019-04-10T10:19:34.216Z,19.17
2019-04-10T10:22:25.249Z,18.57
2019-04-10T10:25:17.275Z,16.43
2019-04-10T10:28:09.086Z,17.90
2019-04-10T10:30:59.960Z,14.80
2019-04-10T10:33:52.134Z,15.97
2019-04-10T10:36:46.214Z,16.83
2019-04-10T10:39:34.976Z,18.70
2019-04-10T10:42:26.169Z,17.67
2019-04-10T10:45:18.666Z,15.03
2019-04-10T10:48:09.700Z,17.80
2019-04-10T10:50:59.913Z,17.60
2019-04-10T10:53:50.947Z,16.30
2019-04-10T10:56:42.568Z,15.80
2019-04-10T10:59:33.924Z,17.83
2019-04-10T11:02:25.553Z,15.67
2019-04-10T11:05:17.044Z,15.20
2019-04-10T11:08:07.623Z,16.80
2019-04-10T11:10:59.415Z,14.80
2019-04-10T11:13:50.969Z,16.30
2019-04-10T11:16:42.228Z,21.17
2019-04-10T11:19:33.554Z,15.93
2019-04-10T11:22:25.649Z,16.60
2019-04-10T11:25:15.889Z,16.67
2019-04-10T11:28:07.687Z,20.47
2019-04-10T11:30:58.635Z,20.70
2019-04-10T11:33:51.984Z,17.33
2019-04-10T11:36:42.614Z,19.17
2019-04-10T11:39:38.335Z,15.40
2019-04-10T11:42:28.955Z,21.57
2019-04-10T11:45:22.814Z,17.53
2019-04-10T11:48:16.434Z,17.03
2019-04-10T11:51:07.340Z,20.90
2019-04-10T11:53:59.205Z,19.90
2019-04-10T11:56:53.378Z,18.43
2019-04-10T11:59:44.763Z,19.43
2019-04-10T12:02:36.945Z,17.20
2019-04-10T12:05:29.690Z,17.63
2019-04-10T12:08:44.718Z,18.07
2019-04-10T12:11:15.514Z,17.67
2019-04-10T12:14:04.963Z,16.50
2019-04-10T12:16:56.119Z,22.93
2019-04-10T12:19:46.737Z,15.67
2019-04-10T12:22:38.220Z,17.87
2019-04-10T12:25:29.408Z,18.80
2019-04-10T12:28:20.574Z,16.60
2019-04-10T12:31:12.036Z,20.73
2019-04-10T12:34:03.425Z,18.47
2019-04-10T12:36:55.183Z,16.80
2019-04-10T12:39:45.477Z,29.00
2019-04-10T12:42:36.676Z,18.03
2019-04-10T12:45:28.361Z,20.87
2019-04-10T12:48:19.528Z,21.10
2019-04-10T12:51:10.482Z,17.20
2019-04-10T12:54:02.601Z,17.23
2019-04-10T12:56:54.858Z,20.87
2019-04-10T12:59:46.426Z,22.10
2019-04-10T13:02:36.971Z,20.00
2019-04-10T13:05:29.341Z,15.77
2019-04-10T13:08:22.848Z,30.73
2019-04-10T13:11:12.762Z,20.43
2019-04-10T13:14:06.331Z,16.97
2019-04-10T13:16:56.928Z,18.30
2019-04-10T13:19:47.537Z,16.27
2019-04-10T13:22:40.118Z,20.40
2019-04-10T13:25:32.442Z,21.90
2019-04-10T13:28:24.158Z,21.60
2019-04-10T13:31:15.634Z,20.77
2019-04-10T13:34:07.301Z,22.40
2019-04-10T13:36:57.850Z,29.60
2019-04-10T13:39:48.916Z,22.10
2019-04-10T13:42:41.165Z,16.07
2019-04-10T13:45:31.331Z,19.90
2019-04-10T13:48:22.901Z,17.47
2019-04-10T13:51:14.967Z,18.73
2019-04-10T13:54:06.234Z,15.43
2019-04-10T13:56:57.559Z,19.30
2019-04-10T13:59:49.102Z,19.40
2019-04-10T14:02:40.096Z,20.00
2019-04-10T14:05:33.657Z,18.00
2019-04-10T14:08:40.586Z,16.03
2019-04-10T14:11:17.409Z,14.47
2019-04-10T14:14:08.616Z,15.87
2019-04-10T14:16:59.695Z,16.43
2019-04-10T14:19:51.760Z,15.83
2019-04-10T14:22:54.482Z,17.77
2019-04-10T14:26:00.581Z,20.70
2019-04-10T14:28:52.063Z,17.50
2019-04-10T14:31:53.068Z,17.70
2019-04-10T14:34:44.904Z,21.90
2019-04-10T14:37:37.913Z,22.83
2019-04-10T14:40:30.444Z,16.17
2019-04-10T14:43:22.903Z,16.93
2019-04-10T14:46:14.378Z,16.10
2019-04-10T14:49:06.961Z,14.00
2019-04-10T14:51:57.576Z,14.17
2019-04-10T14:54:50.235Z,17.00
2019-04-10T14:57:41.803Z,14.80
2019-04-10T15:01:00.199Z,14.50
2019-04-10T15:03:50.884Z,13.97
2019-04-10T15:06:42.276Z,17.33
2019-04-10T15:09:34.695Z,14.77
2019-04-10T15:12:26.299Z,17.77
2019-04-10T15:15:17.700Z,16.90
2019-04-10T15:18:10.828Z,13.67
2019-04-10T15:21:02.844Z,13.23
2019-04-10T15:23:55.210Z,14.60
2019-04-10T15:26:46.606Z,13.90
2019-04-10T15:29:38.617Z,13.97
2019-04-10T15:32:29.991Z,15.83
2019-04-10T15:35:21.156Z,13.40
2019-04-10T15:38:13.653Z,14.53
2019-04-10T15:41:04.782Z,13.83
2019-04-10T15:43:57.263Z,14.93
2019-04-10T15:46:49.050Z,14.03
2019-04-10T15:49:40.884Z,14.23
2019-04-10T15:52:31.991Z,20.57
2019-04-10T15:55:23.664Z,16.87
2019-04-10T15:58:15.079Z,14.90
2019-04-10T16:01:09.848Z,16.33
2019-04-10T16:04:00.923Z,14.20
2019-04-10T16:06:53.660Z,17.53
2019-04-10T16:09:51.650Z,15.00
2019-04-10T16:12:37.555Z,14.80
2019-04-10T16:15:31.022Z,13.90
2019-04-10T16:18:23.167Z,13.70
2019-04-10T16:21:14.624Z,14.40
2019-04-10T16:24:08.782Z,14.70
2019-04-10T16:26:59.806Z,15.50
2019-04-10T16:29:51.455Z,13.87
2019-04-10T16:32:42.638Z,17.07
2019-04-10T16:35:35.367Z,14.93
2019-04-10T16:38:25.324Z,15.20
2019-04-10T16:41:15.750Z,13.30
2019-04-10T16:44:07.018Z,14.30
2019-04-10T16:46:57.483Z,13.60
2019-04-10T16:49:49.107Z,13.10
2019-04-10T16:52:41.140Z,16.60
2019-04-10T16:55:32.846Z,14.20
2019-04-10T16:58:24.458Z,13.13
2019-04-10T17:01:18.262Z,13.27
2019-04-10T17:04:09.122Z,13.57
2019-04-10T17:06:59.522Z,13.73
2019-04-10T17:09:51.485Z,16.50
2019-04-10T17:12:42.256Z,14.30
2019-04-10T17:15:34.490Z,15.30
2019-04-10T17:18:26.069Z,14.20
2019-04-10T17:21:18.053Z,14.63
2019-04-10T17:24:09.771Z,13.70
2019-04-10T17:27:01.501Z,14.70
2019-04-10T17:29:53.464Z,13.80
2019-04-10T17:32:45.296Z,15.10
2019-04-10T17:35:36.493Z,14.47
2019-04-10T17:38:27.171Z,13.40
2019-04-10T17:41:19.666Z,15.13
2019-04-10T17:44:11.699Z,14.13
2019-04-10T17:47:02.397Z,16.13
2019-04-10T17:49:53.914Z,14.30
2019-04-10T17:52:45.505Z,14.50
2019-04-10T17:55:35.954Z,13.33
2019-04-10T17:58:27.511Z,13.67
2019-04-10T18:01:20.909Z,13.83
2019-04-10T18:04:12.019Z,18.83
2019-04-10T18:07:03.922Z,13.50
2019-04-10T18:09:55.952Z,14.60
2019-04-10T18:12:48.096Z,14.00
2019-04-10T18:15:39.999Z,13.60
2019-04-10T18:18:31.614Z,13.90
2019-04-10T18:21:23.006Z,13.60
2019-04-10T18:24:15.749Z,12.77
2019-04-10T18:27:07.930Z,12.77
2019-04-10T18:29:59.452Z,12.27
2019-04-10T18:32:50.767Z,12.70
2019-04-10T18:35:42.781Z,11.63
2019-04-10T18:38:35.428Z,11.87
2019-04-10T18:41:26.069Z,13.87
2019-04-10T18:44:17.782Z,13.30
2019-04-10T18:47:09.005Z,13.00
2019-04-10T18:50:01.165Z,12.73
2019-04-10T18:52:53.943Z,13.10
2019-04-10T18:55:46.839Z,12.93
2019-04-10T18:58:43.891Z,15.03
2019-04-10T19:01:47.377Z,13.43
2019-04-10T19:04:43.314Z,12.70
2019-04-10T19:07:36.457Z,14.20
2019-04-10T19:10:28.682Z,12.63
2019-04-10T19:13:20.341Z,20.87
2019-04-10T19:16:12.966Z,14.27
2019-04-10T19:19:05.148Z,15.33
2019-04-10T19:21:56.901Z,13.43
2019-04-10T19:24:52.164Z,13.33
2019-04-10T19:27:44.591Z,12.97
2019-04-10T19:30:51.266Z,13.13
2019-04-10T19:33:49.882Z,12.57
2019-04-10T19:36:48.097Z,13.07
2019-04-10T19:39:44.637Z,16.40
2019-04-10T19:42:37.634Z,13.47
2019-04-10T19:45:30.570Z,12.57
2019-04-10T19:48:21.387Z,13.97
2019-04-10T19:51:14.913Z,17.10
2019-04-10T19:54:09.131Z,13.57
2019-04-10T19:57:01.760Z,14.00
2019-04-10T19:59:53.634Z,13.70
2019-04-10T20:02:45.569Z,13.17
2019-04-10T20:05:39.317Z,13.27
2019-04-10T20:08:31.329Z,14.20
2019-04-10T20:11:31.842Z,13.53
2019-04-10T20:14:15.729Z,13.30
2019-04-10T20:17:08.040Z,13.67
2019-04-10T20:19:59.894Z,13.27
2019-04-10T20:22:50.404Z,15.60
2019-04-10T20:25:42.792Z,14.63
2019-04-10T20:28:33.916Z,14.03
2019-04-10T20:31:27.585Z,14.67
2019-04-10T20:34:19.056Z,13.80
2019-04-10T20:37:11.944Z,15.93
2019-04-10T20:40:03.466Z,12.97
2019-04-10T20:42:54.242Z,13.60
2019-04-10T20:45:45.478Z,14.83
2019-04-10T20:48:36.221Z,14.00
2019-04-10T20:51:28.296Z,13.70
2019-04-10T20:54:18.594Z,14.13
2019-04-10T20:57:11.058Z,14.40
2019-04-10T21:00:02.279Z,13.77
2019-04-10T21:02:55.470Z,14.00
2019-04-10T21:05:48.637Z,15.00
2019-04-10T21:08:40.386Z,13.43
2019-04-10T21:11:33.360Z,15.23
2019-04-10T21:14:24.518Z,14.33
2019-04-10T21:17:14.839Z,14.63
2019-04-10T21:20:07.888Z,16.27
2019-04-10T21:22:58.375Z,14.50
2019-04-10T21:25:49.838Z,14.33
2019-04-10T21:28:41.599Z,15.80
2019-04-10T21:31:54.939Z,14.80
2019-04-10T21:34:47.346Z,16.37
2019-04-10T21:37:38.201Z,13.33
2019-04-10T21:40:30.550Z,16.90
2019-04-10T21:43:21.456Z,14.70
2019-04-10T21:46:12.349Z,14.03
2019-04-10T21:49:05.722Z,13.50
2019-04-10T21:51:57.890Z,15.13
2019-04-10T21:54:54.072Z,14.20
2019-04-10T21:57:41.237Z,14.07
2019-04-10T22:00:51.257Z,13.47
2019-04-10T22:03:43.614Z,13.63
2019-04-10T22:06:53.797Z,14.37
2019-04-10T22:10:01.451Z,14.53
2019-04-10T22:12:52.712Z,14.33
2019-04-10T22:15:47.075Z,13.23
2019-04-10T22:18:37.664Z,13.73
2019-04-10T22:21:29.145Z,14.60
2019-04-10T22:24:21.461Z,13.63
2019-04-10T22:27:12.140Z,13.60
2019-04-10T22:30:02.945Z,13.50
2019-04-10T22:32:55.797Z,14.40
2019-04-10T22:35:46.801Z,17.67
2019-04-10T22:38:38.297Z,14.43
2019-04-10T22:41:32.091Z,13.70
2019-04-10T22:44:33.724Z,13.13
2019-04-10T22:47:14.768Z,12.63
2019-04-10T22:50:06.730Z,12.93
2019-04-10T22:52:59.109Z,13.93
2019-04-10T22:55:50.925Z,14.73
2019-04-10T22:58:43.143Z,13.03
2019-04-10T23:01:35.509Z,12.70
2019-04-10T23:04:26.998Z,13.10
2019-04-10T23:07:17.784Z,13.67
2019-04-10T23:10:13.218Z,14.13
2019-04-10T23:13:07.059Z,13.10
2019-04-10T23:15:57.849Z,14.07
2019-04-10T23:18:50.484Z,13.73
2019-04-10T23:21:41.083Z,14.17
2019-04-10T23:24:32.347Z,13.03
2019-04-10T23:27:23.844Z,12.83
2019-04-10T23:30:18.683Z,12.83
2019-04-10T23:33:10.040Z,12.63
2019-04-10T23:36:02.095Z,13.40
2019-04-10T23:38:53.349Z,15.20
2019-04-10T23:41:45.510Z,11.93
2019-04-10T23:44:37.444Z,12.17
2019-04-10T23:47:28.424Z,13.43
2019-04-10T23:50:19.820Z,12.07
2019-04-10T23:53:10.418Z,13.30
2019-04-10T23:56:02.117Z,12.40
2019-04-10T23:58:54.105Z,11.80
